Accueil
METAR-TAF:

METAR-TAF

Aéroports :

Aérodrome de Logrogne

Logroño, Espagne

latitude: 42-27N, longitude: 002-20W, altitude: 353 m

Observation

Le bulletin a été fait il y a 35 minutes, à 21:00 UTC
Vent 8 kt de ouest
Température 2°C
Humidité 93%
Pression 1025 hPa
Visibilité 10 km ou plus
Quelques nuages à une hauteur de 6000 ft

METAR: LELO 212100Z 28008KT 9999 FEW060 02/01 Q1025

Heure: 22:35 (21:35 UTC)

Prévision

Le bulletin a été fait il y a 4 heures et 35 minutes, à 17:00 UTC
Prévision valable du 21 à 18 UTC au 22 à 03 UTC
Vent 9 kt de ouest
Visibilité 10 km ou plus
Nuages épars à une hauteur de 1200 ft
Nuages fragmentés à une hauteur de 5500 ft
Probabilité 40% :
Temporairement
du 21 à 18 UTC au 22 à 03 UTC
Visibilité: 3000 m
Nuages fragmentés à une hauteur de 900 ft
pluie, brume

TAF: LELO 211700Z 2118/2203 28009KT 9999 SCT012 BKN055 PROB40 TEMPO 2118/2203 3000 RA BR BKN009

Observations et prévisions météorologiques de plus de 4000 aéroports (messages METAR et TAF).

Les stations disponibles sont représentées par des disques jaunes et rouges sur la carte.

Passer la souris dessus pour voir le nom de la station.

Cliquer dessus pour voir les observations et prévisions météorologiques.

Pour changer de carte: cliquez sur les boutons verts avec une croix noire pour zoomer, sur le bouton vert avec un tiret pour effectuer un zoom arrière, ou sur les flèches vertes pour les cartes adjacentes.


METAR-TAF: